Time;durP1;ratioP1;P1;durP2;ratioP2;P2;SDS_P1;SDS_P2;PMS_P1;PMS_P2;Temp;Humidity;BMP_temperature;BMP_pressure;BME280_temperature;BME280_humidity;BME280_pressure;Samples;Min_cycle;Max_cycle;Signal;HPM_P1;HPM_P2
2023/06/15 00:00:09;;;;;;;;;45.25;38.75;;;;;27.04;34.05;100971.34;2089530;28;47236;-63
2023/06/15 00:01:09;;;;;;;;;44.40;38.00;;;;;27.03;34.45;100969.63;2088867;28;45805;-62
2023/06/15 00:02:11;;;;;;;;;47.50;39.00;;;;;27.02;33.61;100968.75;2080822;28;46160;-62
2023/06/15 00:03:11;;;;;;;;;52.80;43.00;;;;;27.01;34.25;100972.47;2088653;28;46123;-62
2023/06/15 00:04:11;;;;;;;;;52.75;42.50;;;;;26.99;34.28;100969.84;2088924;28;46184;-62
2023/06/15 00:05:12;;;;;;;;;51.00;41.75;;;;;26.98;34.10;100973.56;2085221;28;46050;-61
2023/06/15 00:06:12;;;;;;;;;57.00;44.50;;;;;26.97;33.76;100969.13;2086619;28;46839;-61
2023/06/15 00:07:12;;;;;;;;;48.50;39.50;;;;;26.97;33.83;100976.44;2089226;28;45047;-62
2023/06/15 00:08:13;;;;;;;;;50.00;40.25;;;;;26.96;34.23;100975.56;2096667;28;47284;-61
2023/06/15 00:09:13;;;;;;;;;49.25;41.00;;;;;26.96;33.90;100982.88;2092871;28;46675;-61
2023/06/15 00:10:14;;;;;;;;;47.75;39.00;;;;;26.94;33.95;100974.84;2089464;28;45832;-62
2023/06/15 00:11:14;;;;;;;;;45.75;39.25;;;;;26.93;34.35;100977.69;2089160;28;45745;-63
2023/06/15 00:12:14;;;;;;;;;46.00;39.25;;;;;26.91;34.39;100980.53;2088903;28;45526;-63
2023/06/15 00:13:15;;;;;;;;;40.75;35.75;;;;;26.89;34.41;100978.94;2089221;28;45976;-60
2023/06/15 00:14:16;;;;;;;;;43.50;37.00;;;;;26.87;34.24;100979.09;2091265;28;45698;-60
2023/06/15 00:15:17;;;;;;;;;38.75;33.00;;;;;26.86;34.35;100974.63;2090649;28;47022;-61
2023/06/15 00:16:18;;;;;;;;;39.40;33.80;;;;;26.84;34.06;100973.03;2089160;28;45628;-64
2023/06/15 00:17:19;;;;;;;;;39.20;34.40;;;;;26.83;34.15;100971.31;2091035;28;46805;-62
2023/06/15 00:18:19;;;;;;;;;30.00;27.00;;;;;26.81;34.29;100974.19;2090372;28;45851;-60
2023/06/15 00:19:19;;;;;;;;;38.00;32.00;;;;;26.81;34.51;100973.31;2089055;28;45713;-62
2023/06/15 00:20:22;;;;;;;;;36.25;32.25;;;;;26.80;34.63;100974.28;2088135;28;45644;-61
2023/06/15 00:21:24;;;;;;;;;32.20;30.00;;;;;26.80;34.18;100971.56;2085619;28;45318;-61
2023/06/15 00:22:26;;;;;;;;;30.80;28.00;;;;;26.80;34.27;100980.59;2094083;28;45680;-63
2023/06/15 00:23:26;;;;;;;;;23.20;20.00;;;;;26.79;34.59;100978.00;2087065;28;45943;-63
2023/06/15 00:24:26;;;;;;;;;33.25;29.75;;;;;26.79;34.66;100972.56;2078587;28;46673;-62
2023/06/15 00:25:27;;;;;;;;;31.00;29.00;;;;;26.80;34.76;100980.59;2089363;28;45037;-63
2023/06/15 00:26:27;;;;;;;;;32.00;29.25;;;;;26.80;34.72;100979.72;2088617;28;45429;-64
2023/06/15 00:27:28;;;;;;;;;28.50;27.50;;;;;26.79;34.78;100976.16;2089237;28;46998;-59
2023/06/15 00:28:28;;;;;;;;;32.00;30.25;;;;;26.78;34.26;100977.13;2089804;28;46021;-63
2023/06/15 00:29:28;;;;;;;;;34.00;30.50;;;;;26.79;34.44;100978.00;2089449;28;46068;-60
2023/06/15 00:30:29;;;;;;;;;29.00;28.50;;;;;26.78;34.58;100982.59;2088525;28;47269;-62
2023/06/15 00:31:29;;;;;;;;;33.50;31.00;;;;;26.78;34.70;100981.72;2087920;28;46256;-63
2023/06/15 00:32:30;;;;;;;;;30.50;28.50;;;;;26.77;34.58;100982.72;2089897;28;45823;-60
2023/06/15 00:33:30;;;;;;;;;31.50;29.75;;;;;26.75;34.12;100982.00;2089764;28;45471;-60
2023/06/15 00:34:30;;;;;;;;;28.25;27.75;;;;;26.75;35.03;100982.00;2081678;28;45916;-63
2023/06/15 00:35:31;;;;;;;;;29.25;28.25;;;;;26.74;35.03;100981.13;2089210;28;46007;-63
2023/06/15 00:36:31;;;;;;;;;26.75;25.00;;;;;26.73;34.24;100979.41;2089997;28;45065;-62
2023/06/15 00:37:31;;;;;;;;;32.00;30.25;;;;;26.72;34.81;100980.41;2089175;28;46387;-63
2023/06/15 00:38:32;;;;;;;;;32.50;30.00;;;;;26.71;35.00;100985.97;2088834;28;46100;-62
2023/06/15 00:39:32;;;;;;;;;33.00;30.00;;;;;26.70;35.06;100982.41;2089134;28;46278;-62
2023/06/15 00:40:32;;;;;;;;;32.00;29.75;;;;;26.69;34.22;100986.97;2096241;28;45626;-62
2023/06/15 00:41:43;;;;;;;;;30.25;26.75;;;;;26.67;34.43;100988.06;2096431;28;45761;-62
2023/06/15 00:42:44;;;;;;;;;28.80;28.20;;;;;26.64;34.79;100986.50;2097477;28;45730;-63
2023/06/15 00:43:45;;;;;;;;;32.40;29.80;;;;;26.64;35.02;100985.63;2096603;28;45818;-63
2023/06/15 00:44:45;;;;;;;;;31.00;28.25;;;;;26.63;35.04;100987.47;2092980;28;45633;-62
2023/06/15 00:45:45;;;;;;;;;35.75;32.50;;;;;26.61;34.42;100991.34;2085742;28;45681;-62
2023/06/15 00:46:46;;;;;;;;;28.50;26.50;;;;;26.59;34.97;100987.88;2093738;28;46358;-61
2023/06/15 00:47:46;;;;;;;;;32.00;30.00;;;;;26.59;35.30;100987.88;2096391;28;45528;-61
2023/06/15 00:48:47;;;;;;;;;31.50;30.00;;;;;26.57;34.89;100990.75;2088958;28;46484;-63
2023/06/15 00:49:48;;;;;;;;;31.50;29.75;;;;;26.57;35.05;100992.59;2088562;28;46230;-63
2023/06/15 00:50:49;;;;;;;;;31.20;30.00;;;;;26.55;34.60;100987.28;2082994;28;46034;-62
2023/06/15 00:51:50;;;;;;;;;32.60;30.60;;;;;26.55;35.20;100987.28;2089108;28;45790;-61
2023/06/15 00:52:51;;;;;;;;;33.25;28.75;;;;;26.53;34.99;100980.22;2088962;28;45736;-61
2023/06/15 00:53:52;;;;;;;;;32.40;28.60;;;;;26.52;34.76;100983.94;2089405;28;46026;-61
2023/06/15 00:54:52;;;;;;;;;33.50;29.75;;;;;26.51;34.67;100990.38;2088931;28;45498;-61
2023/06/15 00:55:53;;;;;;;;;33.00;30.75;;;;;26.51;35.44;100995.81;2089443;28;46776;-63
2023/06/15 00:56:53;;;;;;;;;32.75;30.00;;;;;26.50;34.75;100985.94;2088475;28;46285;-62
2023/06/15 00:57:56;;;;;;;;;27.75;27.75;;;;;26.47;35.50;100984.34;2089056;28;45383;-61
2023/06/15 00:58:57;;;;;;;;;33.60;30.40;;;;;26.46;34.84;100984.47;2088880;28;46613;-62
2023/06/15 00:59:57;;;;;;;;;29.40;28.00;;;;;26.45;35.48;100986.34;2088476;28;47675;-63
2023/06/15 01:00:58;;;;;;;;;28.75;27.50;;;;;26.45;35.27;100989.06;2088733;28;46153;-62
2023/06/15 01:01:58;;;;;;;;;30.75;29.25;;;;;26.43;34.94;100985.59;2082241;28;45605;-61
2023/06/15 01:03:00;;;;;;;;;32.75;30.00;;;;;26.43;35.55;100992.91;2081728;28;45526;-59
2023/06/15 01:04:01;;;;;;;;;27.40;26.80;;;;;26.42;35.65;100992.00;2080370;28;45601;-62
2023/06/15 01:05:01;;;;;;;;;28.20;28.00;;;;;26.40;35.59;100985.84;2085520;28;45787;-61
2023/06/15 01:06:12;;;;;;;;;27.25;27.00;;;;;26.39;35.48;100990.41;2080907;28;45944;-63
2023/06/15 01:07:13;;;;;;;;;26.20;26.20;;;;;26.39;35.74;100989.53;2089453;28;45215;-62
2023/06/15 01:08:15;;;;;;;;;25.25;25.00;;;;;26.38;35.69;100990.53;2091204;28;46886;-61
2023/06/15 01:09:16;;;;;;;;;25.80;25.80;;;;;26.37;35.91;100994.25;2088166;28;46382;-62
2023/06/15 01:10:20;;;;;;;;;23.00;23.00;;;;;26.36;35.28;100989.81;2088919;28;46480;-63
2023/06/15 01:11:21;;;;;;;;;22.60;22.60;;;;;26.33;35.78;100984.59;2088553;28;45343;-60
2023/06/15 01:12:21;;;;;;;;;23.00;22.00;;;;;26.31;35.72;100982.00;2089299;28;46724;-64
2023/06/15 01:13:22;;;;;;;;;26.75;26.75;;;;;26.31;35.47;100989.31;2088681;28;45875;-62
2023/06/15 01:14:28;;;;;;;;;24.25;23.75;;;;;26.31;35.20;100984.72;2102185;28;45695;-61
2023/06/15 01:15:28;;;;;;;;;24.00;24.00;;;;;26.29;35.17;100983.97;2095156;28;45457;-63
2023/06/15 01:16:39;;;;;;;;;27.00;25.75;;;;;26.27;35.65;100991.41;2083751;28;46135;-61
2023/06/15 01:17:44;;;;;;;;;24.40;22.20;;;;;26.24;35.26;100980.78;2088567;28;46048;-61
2023/06/15 01:18:47;;;;;;;;;23.80;23.40;;;;;26.22;35.67;100984.63;2089012;28;46174;-64
2023/06/15 01:19:57;;;;;;;;;22.80;22.00;;;;;26.21;35.85;100982.91;2088774;28;45479;-62
2023/06/15 01:21:01;;;;;;;;;19.60;19.60;;;;;26.19;35.58;100987.59;2088209;28;48736;-61
2023/06/15 01:22:14;;;;;;;;;24.00;24.00;;;;;26.18;35.91;100988.59;2088809;28;45999;-63
2023/06/15 01:23:28;;;;;;;;;21.20;20.80;;;;;26.16;35.80;100980.53;2088873;28;45744;-63
2023/06/15 01:24:36;;;;;;;;;22.40;21.60;;;;;26.14;35.48;100979.81;2088865;28;45994;-63
2023/06/15 01:25:43;;;;;;;;;25.00;24.60;;;;;26.15;35.59;100983.38;2088550;28;45705;-63
2023/06/15 01:26:49;;;;;;;;;24.40;24.00;;;;;26.14;35.53;100987.97;2088066;28;45792;-61
2023/06/15 01:27:50;;;;;;;;;21.20;20.80;;;;;26.11;35.65;100990.94;2097288;28;46582;-65
2023/06/15 01:28:52;;;;;;;;;23.00;22.50;;;;;26.09;35.77;100991.09;2088245;28;46481;-63
2023/06/15 01:29:54;;;;;;;;;21.20;21.20;;;;;26.08;35.69;100993.94;2087804;28;47544;-61
2023/06/15 01:30:56;;;;;;;;;27.20;26.20;;;;;26.07;35.98;100992.22;2088515;28;46212;-61
2023/06/15 01:31:57;;;;;;;;;23.00;22.40;;;;;26.06;36.30;100991.34;2087941;28;46488;-65
2023/06/15 01:32:58;;;;;;;;;30.00;26.00;;;;;26.06;36.10;100991.34;2088717;28;45627;-61
2023/06/15 01:34:00;;;;;;;;;26.00;25.75;;;;;26.06;36.55;100991.34;2088895;28;46749;-62
2023/06/15 01:35:01;;;;;;;;;26.40;23.00;;;;;26.05;35.86;100986.03;2088253;28;46787;-60
2023/06/15 01:36:01;;;;;;;;;23.50;23.50;;;;;26.04;35.92;100984.28;2086849;28;45399;-63
2023/06/15 01:37:01;;;;;;;;;24.00;24.00;;;;;26.03;36.11;100985.25;2086156;28;46801;-62
2023/06/15 01:38:02;;;;;;;;;22.00;22.00;;;;;26.01;35.99;100988.13;2081579;28;46418;-63
2023/06/15 01:39:03;;;;;;;;;23.00;23.00;;;;;26.00;35.98;100982.81;2088122;28;45702;-63
2023/06/15 01:40:04;;;;;;;;;20.20;20.00;;;;;25.98;36.33;100985.66;2088360;28;46789;-61
2023/06/15 01:41:07;;;;;;;;;21.20;21.20;;;;;25.97;36.16;100983.06;2087570;28;46217;-61
2023/06/15 01:42:08;;;;;;;;;23.80;22.80;;;;;25.95;36.40;100980.47;2087901;28;47036;-62
2023/06/15 01:43:12;;;;;;;;;22.25;21.50;;;;;25.93;36.64;100985.19;2088631;28;45060;-60
2023/06/15 01:44:13;;;;;;;;;20.40;20.00;;;;;25.91;36.13;100986.28;2088674;28;46460;-62
2023/06/15 01:45:15;;;;;;;;;23.60;22.40;;;;;25.89;36.66;100980.97;2088583;28;46904;-63
2023/06/15 01:46:16;;;;;;;;;19.40;18.60;;;;;25.89;36.82;100985.53;2088140;28;46332;-60
2023/06/15 01:47:17;;;;;;;;;22.40;21.60;;;;;25.89;36.33;100986.41;2088353;28;46335;-59
2023/06/15 01:48:18;;;;;;;;;21.75;20.50;;;;;25.87;36.67;100985.66;2088686;28;45048;-62
2023/06/15 01:49:19;;;;;;;;;21.20;21.00;;;;;25.86;36.73;100991.22;2088409;28;46626;-62
2023/06/15 01:50:21;;;;;;;;;19.80;19.60;;;;;25.84;36.77;100991.34;2088567;28;46310;-58
2023/06/15 01:51:22;;;;;;;;;23.00;22.40;;;;;25.82;36.62;100993.34;2088496;28;46958;-62
2023/06/15 01:52:23;;;;;;;;;21.40;20.60;;;;;25.81;36.60;100999.78;2088238;28;47813;-62
2023/06/15 01:53:24;;;;;;;;;24.00;22.00;;;;;25.78;36.49;100991.84;2087890;28;46525;-62
2023/06/15 01:54:24;;;;;;;;;24.75;24.75;;;;;25.75;36.31;100992.97;2088748;28;45946;-62
2023/06/15 01:55:25;;;;;;;;;22.00;21.75;;;;;25.74;36.53;100996.66;2088592;28;45136;-62
2023/06/15 01:56:26;;;;;;;;;24.20;23.40;;;;;25.71;37.12;100993.34;2087127;28;45643;-62
2023/06/15 01:57:26;;;;;;;;;21.50;20.75;;;;;25.69;36.34;100995.31;2081941;28;46826;-62
2023/06/15 01:58:26;;;;;;;;;25.00;24.25;;;;;25.66;36.65;100996.38;2080024;28;45972;-61
2023/06/15 01:59:27;;;;;;;;;23.25;21.50;;;;;25.64;36.45;100995.66;2088152;28;47805;-60
2023/06/15 02:00:27;;;;;;;;;22.50;22.50;;;;;25.63;36.55;101002.06;2088447;28;46173;-62
2023/06/15 02:01:28;;;;;;;;;24.50;22.75;;;;;25.62;36.59;100994.03;2086127;28;45632;-61
2023/06/15 02:02:28;;;;;;;;;23.25;21.50;;;;;25.58;37.10;100995.28;2080139;28;45655;-64
2023/06/15 02:03:28;;;;;;;;;23.25;23.25;;;;;25.57;36.73;100997.13;2095999;28;46281;-62
2023/06/15 02:04:29;;;;;;;;;23.25;23.00;;;;;25.56;37.30;100998.13;2087889;28;46248;-62
2023/06/15 02:05:29;;;;;;;;;21.75;21.75;;;;;25.56;37.30;100995.41;2085818;28;45768;-61
2023/06/15 02:06:29;;;;;;;;;19.50;19.00;;;;;25.56;37.25;100989.13;2088546;28;46179;-62
2023/06/15 02:07:30;;;;;;;;;23.00;23.00;;;;;25.54;37.23;100986.53;2089464;28;45278;-61
2023/06/15 02:08:30;;;;;;;;;21.00;21.00;;;;;25.53;36.97;100995.63;2094896;28;46122;-62
2023/06/15 02:09:30;;;;;;;;;21.25;20.75;;;;;25.52;37.40;100986.63;2095379;28;45612;-61
2023/06/15 02:10:31;;;;;;;;;20.75;20.75;;;;;25.50;37.07;100991.31;2095478;28;46629;-63
2023/06/15 02:11:31;;;;;;;;;19.50;19.00;;;;;25.50;36.87;100987.72;2104624;28;45654;-62
2023/06/15 02:12:32;;;;;;;;;23.25;23.25;;;;;25.49;36.73;100991.44;2102912;28;45942;-62
2023/06/15 02:13:32;;;;;;;;;24.00;23.50;;;;;25.48;37.23;100998.72;2088202;28;46527;-61
2023/06/15 02:14:32;;;;;;;;;23.50;22.50;;;;;25.47;36.81;100994.28;2088405;28;46005;-62
2023/06/15 02:15:33;;;;;;;;;22.50;22.50;;;;;25.47;37.33;100993.41;2088069;28;45813;-61
2023/06/15 02:16:33;;;;;;;;;21.75;21.75;;;;;25.46;37.02;100986.25;2089143;28;44949;-64
2023/06/15 02:17:38;;;;;;;;;22.00;21.00;;;;;25.45;37.54;100988.13;2087807;28;47715;-61
2023/06/15 02:18:38;;;;;;;;;20.60;20.60;;;;;25.44;36.91;100986.38;2087343;28;47017;-62
2023/06/15 02:19:39;;;;;;;;;22.00;22.00;;;;;25.42;37.03;100991.09;2088669;28;45673;-61
2023/06/15 02:20:43;;;;;;;;;22.50;22.25;;;;;25.42;37.01;100996.53;2088746;28;45514;-62
2023/06/15 02:21:43;;;;;;;;;21.20;20.00;;;;;25.40;37.02;101001.19;2087844;28;45540;-62
2023/06/15 02:22:43;;;;;;;;;19.00;19.00;;;;;25.38;36.98;100999.56;2088216;28;46309;-61
2023/06/15 02:23:45;;;;;;;;;24.50;23.25;;;;;25.35;37.18;100995.25;2087487;28;45564;-62
2023/06/15 02:24:45;;;;;;;;;22.60;22.20;;;;;25.35;37.46;100995.25;2087723;28;45677;-63
2023/06/15 02:25:45;;;;;;;;;22.25;20.50;;;;;25.36;37.06;100993.41;2088106;28;46071;-62
2023/06/15 02:26:46;;;;;;;;;22.00;22.00;;;;;25.38;37.53;100992.28;2088379;28;45707;-60
2023/06/15 02:27:46;;;;;;;;;23.25;23.00;;;;;25.41;37.45;100994.78;2085821;28;45845;-60
2023/06/15 02:28:47;;;;;;;;;22.00;22.00;;;;;25.40;37.13;101001.19;2088652;28;46060;-61
2023/06/15 02:29:47;;;;;;;;;24.25;23.25;;;;;25.39;37.21;100999.44;2088133;28;45211;-61
2023/06/15 02:30:47;;;;;;;;;22.25;22.25;;;;;25.37;37.89;100996.00;2088125;28;45476;-63
2023/06/15 02:31:48;;;;;;;;;26.25;23.75;;;;;25.35;37.38;100992.53;2088297;28;45944;-60
2023/06/15 02:32:48;;;;;;;;;23.00;22.00;;;;;25.35;37.44;100989.81;2087966;28;46051;-61
2023/06/15 02:33:48;;;;;;;;;21.50;20.00;;;;;25.33;37.59;100990.94;2087917;28;47381;-60
2023/06/15 02:34:50;;;;;;;;;24.75;22.25;;;;;25.35;37.37;100994.41;2088085;28;45917;-61
2023/06/15 02:35:51;;;;;;;;;22.60;22.60;;;;;25.34;37.84;101000.81;2088460;28;47220;-61
2023/06/15 02:36:53;;;;;;;;;21.50;21.50;;;;;25.34;37.87;100992.66;2088097;28;46556;-62
2023/06/15 02:37:53;;;;;;;;;22.00;22.00;;;;;25.35;37.57;100994.41;2091798;28;46379;-63
2023/06/15 02:38:54;;;;;;;;;22.75;22.75;;;;;25.35;37.33;100997.13;2089831;28;46430;-62
2023/06/15 02:39:54;;;;;;;;;19.50;19.50;;;;;25.37;37.33;100998.72;2093644;28;45555;-62
2023/06/15 02:40:55;;;;;;;;;21.50;21.50;;;;;25.35;37.62;100992.53;2091031;28;45991;-60
2023/06/15 02:41:55;;;;;;;;;22.75;22.75;;;;;25.38;37.31;100991.44;2091319;28;45783;-62
2023/06/15 02:42:55;;;;;;;;;23.50;21.75;;;;;25.37;37.61;100996.00;2092346;28;45467;-61
2023/06/15 02:43:56;;;;;;;;;21.00;21.00;;;;;25.40;37.60;100994.88;2087840;28;47731;-62
2023/06/15 02:44:56;;;;;;;;;24.75;23.50;;;;;25.40;37.46;100990.31;2092410;28;45802;-63
2023/06/15 02:45:56;;;;;;;;;23.50;23.00;;;;;25.41;37.70;100983.91;2085691;28;45566;-63
2023/06/15 02:46:57;;;;;;;;;24.25;22.25;;;;;25.42;37.41;100998.38;2088125;28;45767;-62
2023/06/15 02:47:58;;;;;;;;;23.00;23.00;;;;;25.43;37.15;100992.81;2092803;28;46497;-60
2023/06/15 02:48:58;;;;;;;;;22.60;22.00;;;;;25.42;37.82;100984.78;2090412;28;45685;-61
2023/06/15 02:49:59;;;;;;;;;21.75;21.75;;;;;25.43;37.47;100986.50;2091158;28;45636;-61
2023/06/15 02:51:00;;;;;;;;;22.00;22.00;;;;;25.44;37.20;100989.09;2092758;28;45925;-61
2023/06/15 02:52:00;;;;;;;;;21.00;21.00;;;;;25.43;37.07;100987.38;2088730;28;45820;-62
2023/06/15 02:53:00;;;;;;;;;24.50;23.50;;;;;25.42;37.23;100993.81;2091988;28;46587;-61
2023/06/15 02:54:01;;;;;;;;;21.25;20.00;;;;;25.43;37.67;100987.38;2091444;28;45279;-61
2023/06/15 02:55:01;;;;;;;;;22.00;21.75;;;;;25.46;37.04;100991.69;2088818;28;46402;-61
2023/06/15 02:56:02;;;;;;;;;21.50;20.50;;;;;25.44;37.21;100991.81;2104377;28;46297;-61
2023/06/15 02:57:06;;;;;;;;;22.00;20.60;;;;;25.45;37.27;100987.25;2103728;28;46588;-61
2023/06/15 02:58:07;;;;;;;;;23.80;22.60;;;;;25.45;37.57;100992.69;2088055;28;45643;-61
2023/06/15 02:59:08;;;;;;;;;24.50;23.50;;;;;25.45;37.07;100992.69;2092077;28;45505;-61
2023/06/15 03:00:12;;;;;;;;;22.60;21.60;;;;;25.45;37.66;100985.41;2088390;28;45600;-63
2023/06/15 03:01:12;;;;;;;;;21.40;20.80;;;;;25.45;37.23;100985.41;2088817;28;45414;-62
2023/06/15 03:02:13;;;;;;;;;22.75;22.75;;;;;25.44;37.20;100986.38;2092526;28;46104;-62
2023/06/15 03:03:14;;;;;;;;;21.75;21.00;;;;;25.44;37.17;100989.09;2088141;28;46258;-63
2023/06/15 03:04:17;;;;;;;;;19.75;19.75;;;;;25.42;37.72;100988.38;2093057;28;46083;-61
2023/06/15 03:05:18;;;;;;;;;23.20;21.60;;;;;25.39;37.06;100991.31;2090993;28;46504;-61
2023/06/15 03:06:18;;;;;;;;;24.00;22.80;;;;;25.34;37.54;100988.09;2089090;28;45747;-63
2023/06/15 03:07:20;;;;;;;;;22.00;22.00;;;;;25.32;37.30;100994.66;2092010;28;45535;-62
2023/06/15 03:08:23;;;;;;;;;23.20;22.60;;;;;25.30;37.76;100986.63;2083493;28;46019;-62
2023/06/15 03:09:25;;;;;;;;;24.60;23.00;;;;;25.29;37.70;100993.03;2091183;28;46178;-62
2023/06/15 03:10:25;;;;;;;;;20.80;19.80;;;;;25.24;37.59;100996.09;2093579;28;46323;-60
2023/06/15 03:11:26;;;;;;;;;22.50;21.50;;;;;25.21;37.41;100988.19;2090661;28;45904;-62
2023/06/15 03:12:26;;;;;;;;;22.40;21.60;;;;;25.19;37.90;100995.63;2091589;28;45806;-62
2023/06/15 03:13:29;;;;;;;;;22.25;19.50;;;;;25.14;37.49;101000.53;2094029;28;46144;-62
2023/06/15 03:14:29;;;;;;;;;21.00;19.60;;;;;25.13;37.51;100984.34;2089445;28;47334;-62
2023/06/15 03:15:30;;;;;;;;;22.00;22.00;;;;;25.11;38.12;100984.47;2093487;28;46637;-61
2023/06/15 03:16:32;;;;;;;;;24.00;24.00;;;;;25.10;37.83;100998.16;2084560;28;46326;-60
2023/06/15 03:17:34;;;;;;;;;21.80;21.80;;;;;25.08;37.74;100998.28;2087847;28;45647;-62
2023/06/15 03:18:35;;;;;;;;;21.40;20.00;;;;;25.07;37.75;100999.28;2096341;28;45343;-61
2023/06/15 03:19:36;;;;;;;;;24.00;23.00;;;;;25.06;37.90;101005.69;2092242;28;44872;-63
2023/06/15 03:20:37;;;;;;;;;20.80;20.00;;;;;25.05;37.84;101003.09;2094075;28;45832;-62
2023/06/15 03:21:37;;;;;;;;;21.00;19.60;;;;;25.03;38.32;101002.34;2093820;28;46294;-61
2023/06/15 03:22:38;;;;;;;;;18.50;18.50;;;;;25.03;38.17;101005.06;2089879;28;47244;-59
2023/06/15 03:23:38;;;;;;;;;20.25;18.50;;;;;25.04;38.07;101004.09;2094478;28;45735;-61
2023/06/15 03:24:43;;;;;;;;;19.25;19.00;;;;;25.06;38.28;101002.97;2092165;28;46113;-62
2023/06/15 03:25:44;;;;;;;;;21.40;21.40;;;;;25.05;37.93;100997.69;2091082;28;46375;-60
2023/06/15 03:26:44;;;;;;;;;23.50;20.50;;;;;25.06;37.99;100997.56;2092407;28;45314;-62
2023/06/15 03:27:48;;;;;;;;;23.25;21.75;;;;;25.08;38.27;101003.72;2091094;28;45288;-63
2023/06/15 03:28:50;;;;;;;;;24.40;22.00;;;;;25.10;37.78;101007.19;2091125;28;45966;-60
2023/06/15 03:29:51;;;;;;;;;25.00;23.00;;;;;25.09;37.71;101002.75;2093461;28;46923;-62
2023/06/15 03:30:56;;;;;;;;;19.25;19.25;;;;;25.10;38.06;101007.19;2087376;28;46638;-61
2023/06/15 03:31:58;;;;;;;;;18.60;18.60;;;;;25.10;37.86;100998.16;2092931;28;46047;-60
2023/06/15 03:32:59;;;;;;;;;24.00;22.80;;;;;25.08;38.30;101003.72;2091328;28;46815;-63
2023/06/15 03:34:00;;;;;;;;;19.60;19.60;;;;;25.07;38.27;101002.00;2089513;28;46538;-64
2023/06/15 03:35:03;;;;;;;;;23.80;20.40;;;;;25.04;38.21;101004.09;2089590;28;45684;-62
2023/06/15 03:36:03;;;;;;;;;24.80;23.00;;;;;25.03;38.21;100999.63;2091205;28;46664;-62
2023/06/15 03:37:05;;;;;;;;;19.00;19.00;;;;;25.03;38.00;101000.53;2090913;28;46789;-60
2023/06/15 03:38:06;;;;;;;;;20.00;19.80;;;;;25.03;38.33;101000.53;2089502;28;45686;-62
2023/06/15 03:39:06;;;;;;;;;19.00;18.00;;;;;25.05;38.13;101001.25;2088861;28;45990;-60
2023/06/15 03:40:08;;;;;;;;;25.00;24.50;;;;;25.06;37.95;101008.41;2088715;28;45426;-63
2023/06/15 03:41:08;;;;;;;;;21.20;19.60;;;;;25.07;37.92;101012.00;2089470;28;45660;-61
2023/06/15 03:42:09;;;;;;;;;21.25;21.25;;;;;25.09;38.38;101007.31;2090321;28;45818;-62
2023/06/15 03:43:10;;;;;;;;;21.75;20.25;;;;;25.10;38.04;101009.03;2089283;28;45791;-60
2023/06/15 03:44:11;;;;;;;;;20.80;20.80;;;;;25.10;38.11;101014.47;2089937;28;46174;-63
2023/06/15 03:45:11;;;;;;;;;22.50;21.25;;;;;25.08;38.06;101001.00;2089291;28;46411;-61
2023/06/15 03:46:12;;;;;;;;;22.50;22.00;;;;;25.10;37.53;101003.59;2088652;28;45443;-62
2023/06/15 03:47:12;;;;;;;;;20.50;20.50;;;;;25.10;38.07;101014.47;2088689;28;46383;-62
2023/06/15 03:48:12;;;;;;;;;21.50;19.50;;;;;25.11;37.87;101018.91;2088713;28;46315;-63
2023/06/15 03:49:13;;;;;;;;;21.00;21.00;;;;;25.12;37.91;101016.06;2079778;28;46475;-59
2023/06/15 03:50:13;;;;;;;;;18.50;18.25;;;;;25.12;37.83;101007.06;2079834;28;46689;-63
2023/06/15 03:51:13;;;;;;;;;21.25;20.25;;;;;25.13;38.33;101012.38;2079555;28;46308;-61
2023/06/15 03:52:14;;;;;;;;;18.75;18.75;;;;;25.14;38.11;101015.94;2080240;28;45676;-61
2023/06/15 03:53:15;;;;;;;;;22.00;21.25;;;;;25.14;38.26;101011.38;2079585;28;46348;-61
2023/06/15 03:54:15;;;;;;;;;21.75;21.25;;;;;25.14;37.96;101021.38;2079875;28;45583;-59
2023/06/15 03:55:16;;;;;;;;;22.00;22.00;;;;;25.13;37.78;101017.81;2079793;28;46909;-61
2023/06/15 03:56:16;;;;;;;;;23.00;23.00;;;;;25.12;38.31;101016.06;2080009;28;46400;-62
2023/06/15 03:57:16;;;;;;;;;21.00;21.00;;;;;25.12;37.87;101016.06;2079808;28;46254;-63
2023/06/15 03:58:17;;;;;;;;;18.25;18.25;;;;;25.11;37.81;101014.34;2072099;28;45622;-62
2023/06/15 03:59:17;;;;;;;;;20.75;20.75;;;;;25.12;38.39;101021.50;2071707;28;46838;-60
2023/06/15 04:00:18;;;;;;;;;22.50;21.50;;;;;25.13;38.04;101016.94;2079845;28;45081;-61
2023/06/15 04:01:19;;;;;;;;;18.50;18.50;;;;;25.12;37.87;101020.63;2067588;28;45582;-61
2023/06/15 04:02:20;;;;;;;;;20.80;19.80;;;;;25.12;38.32;101017.91;2071695;28;47061;-61
2023/06/15 04:03:20;;;;;;;;;22.50;22.50;;;;;25.12;38.03;101009.78;2076554;28;45878;-61
2023/06/15 04:04:20;;;;;;;;;22.50;21.75;;;;;25.11;38.35;101010.75;2079855;28;46755;-61
2023/06/15 04:05:22;;;;;;;;;19.25;19.25;;;;;25.10;38.00;101012.63;2080182;28;45698;-61
2023/06/15 04:06:23;;;;;;;;;19.80;19.60;;;;;25.10;38.01;101022.63;2080062;28;45752;-61
2023/06/15 04:07:23;;;;;;;;;22.40;21.20;;;;;25.07;37.98;101018.28;2080070;28;45673;-61
2023/06/15 04:08:23;;;;;;;;;17.25;17.25;;;;;25.07;37.98;101017.44;2085401;28;45672;-62
2023/06/15 04:09:24;;;;;;;;;21.25;20.50;;;;;25.06;38.57;101012.97;2079317;28;46144;-57
2023/06/15 04:10:24;;;;;;;;;18.75;18.75;;;;;25.07;38.08;101017.44;2070929;28;45709;-59
2023/06/15 04:11:25;;;;;;;;;20.50;20.50;;;;;25.06;38.28;101019.28;2071263;28;46187;-62
2023/06/15 04:12:25;;;;;;;;;20.75;20.75;;;;;25.06;38.18;101010.28;2071421;28;46396;-62
2023/06/15 04:13:26;;;;;;;;;19.50;19.25;;;;;25.06;38.15;101021.13;2079694;28;45021;-62
2023/06/15 04:14:26;;;;;;;;;20.50;20.00;;;;;25.07;38.10;101017.44;2079199;28;46128;-63
2023/06/15 04:15:26;;;;;;;;;18.25;17.50;;;;;25.08;37.93;101019.16;2087953;28;45538;-61
2023/06/15 04:16:26;;;;;;;;;20.50;20.50;;;;;25.09;38.13;101020.88;2088117;28;46656;-61
2023/06/15 04:17:27;;;;;;;;;21.25;20.50;;;;;25.09;37.74;101021.75;2079603;28;46402;-63
2023/06/15 04:18:27;;;;;;;;;21.75;20.75;;;;;25.08;38.40;101025.44;2071635;28;46118;-63
2023/06/15 04:19:28;;;;;;;;;20.75;20.75;;;;;25.08;38.03;101022.72;2071559;28;46367;-62
2023/06/15 04:20:29;;;;;;;;;21.50;20.75;;;;;25.08;38.12;101028.16;2079434;28;45034;-63
2023/06/15 04:21:29;;;;;;;;;20.40;20.40;;;;;25.05;38.10;101017.56;2089120;28;45695;-63
2023/06/15 04:22:29;;;;;;;;;20.25;20.25;;;;;25.07;38.12;101028.28;2095494;28;47432;-61
2023/06/15 04:23:30;;;;;;;;;23.75;23.25;;;;;25.06;38.02;101030.13;2097076;28;45688;-62
2023/06/15 04:24:30;;;;;;;;;22.50;21.25;;;;;25.06;38.38;101024.72;2089024;28;45972;-61
2023/06/15 04:25:35;;;;;;;;;19.00;18.25;;;;;25.07;37.79;101031.88;2088777;28;45900;-59
2023/06/15 04:26:36;;;;;;;;;21.00;18.80;;;;;25.07;37.86;101023.72;2086938;28;45300;-63
2023/06/15 04:27:39;;;;;;;;;20.00;19.60;;;;;25.05;38.00;101030.25;2088965;28;46440;-60
2023/06/15 04:28:40;;;;;;;;;18.40;18.40;;;;;25.04;38.31;101028.53;2088872;28;46767;-61
2023/06/15 04:29:45;;;;;;;;;18.50;18.25;;;;;25.04;38.49;101036.69;2088991;28;45624;-62
2023/06/15 04:30:52;;;;;;;;;19.40;19.40;;;;;25.05;37.88;101038.41;2088739;28;45956;-60
2023/06/15 04:31:55;;;;;;;;;19.80;19.20;;;;;25.03;38.04;101030.38;2088589;28;46643;-63
2023/06/15 04:32:59;;;;;;;;;18.40;18.40;;;;;25.04;37.86;101031.25;2088683;28;46854;-63
2023/06/15 04:34:00;;;;;;;;;18.20;18.00;;;;;25.05;38.08;101038.41;2088779;28;46314;-61
2023/06/15 04:35:01;;;;;;;;;18.00;16.40;;;;;25.05;38.29;101033.84;2088353;28;45835;-61
2023/06/15 04:36:03;;;;;;;;;20.00;20.00;;;;;25.06;37.92;101037.44;2086652;28;46978;-61
2023/06/15 04:37:06;;;;;;;;;18.40;18.40;;;;;25.07;38.13;101036.44;2089202;28;46504;-63
2023/06/15 04:38:07;;;;;;;;;19.80;18.80;;;;;25.08;38.08;101036.31;2104992;28;46180;-62